Time;durP1;ratioP1;P1;durP2;ratioP2;P2;SDS_P1;SDS_P2;PMS_P1;PMS_P2;Temp;Humidity;BMP_temperature;BMP_pressure;BME280_temperature;BME280_humidity;BME280_pressure;Samples;Min_cycle;Max_cycle;Signal;HPM_P1;HPM_P2
2022/07/12 00:02:08;;;;;;;5.28;3.55;;;15.30;99.90;;;;;;5134684;27;20119;-80
2022/07/12 00:04:33;;;;;;;6.45;3.72;;;15.30;99.90;;;;;;5135136;27;20459;-81
2022/07/12 00:06:59;;;;;;;5.88;4.00;;;15.30;99.90;;;;;;5134583;27;20118;-80
2022/07/12 00:09:25;;;;;;;6.20;3.15;;;15.30;99.90;;;;;;5136138;27;20099;-80
2022/07/12 00:11:51;;;;;;;4.35;3.95;;;15.30;99.90;;;;;;5134023;27;20043;-80
2022/07/12 00:14:16;;;;;;;4.50;4.03;;;15.30;99.90;;;;;;5134457;27;20059;-80
2022/07/12 00:16:42;;;;;;;4.18;3.67;;;15.40;99.90;;;;;;5134594;27;20047;-80
2022/07/12 00:19:08;;;;;;;5.60;3.80;;;15.40;99.90;;;;;;5135068;27;20126;-80
2022/07/12 00:21:34;;;;;;;5.72;4.30;;;15.40;99.90;;;;;;5135057;27;20070;-81
2022/07/12 00:24:00;;;;;;;5.00;4.38;;;15.40;99.90;;;;;;5122883;27;20075;-80
2022/07/12 00:26:26;;;;;;;5.72;4.78;;;15.40;99.90;;;;;;5120193;27;20031;-80
2022/07/12 00:28:51;;;;;;;6.20;4.45;;;15.40;99.90;;;;;;5133563;27;20047;-80
2022/07/12 00:31:17;;;;;;;7.15;5.32;;;15.40;99.90;;;;;;5134694;27;20042;-80
2022/07/12 00:33:43;;;;;;;8.88;4.88;;;15.40;99.90;;;;;;5134135;27;20043;-80
2022/07/12 00:36:09;;;;;;;6.40;5.18;;;15.30;99.90;;;;;;5133694;27;20051;-81
2022/07/12 00:38:35;;;;;;;4.97;4.57;;;15.30;99.90;;;;;;5135355;27;20039;-80
2022/07/12 00:41:00;;;;;;;6.40;4.43;;;15.30;99.90;;;;;;5134656;27;20043;-79
2022/07/12 00:43:26;;;;;;;4.90;4.40;;;15.30;99.90;;;;;;5134573;27;20420;-80
2022/07/12 00:45:52;;;;;;;5.20;4.70;;;15.30;99.90;;;;;;5134332;27;20104;-80
2022/07/12 00:48:19;;;;;;;5.50;5.00;;;15.30;99.90;;;;;;5133055;27;20046;-80
2022/07/12 00:50:46;;;;;;;5.57;4.93;;;15.30;99.90;;;;;;5132233;27;20053;-81
2022/07/12 00:53:13;;;;;;;5.50;5.00;;;15.30;99.90;;;;;;5133849;27;20054;-80
2022/07/12 00:55:48;;;;;;;7.30;4.93;;;15.30;99.90;;;;;;5132323;27;20043;-80
2022/07/12 00:58:13;;;;;;;5.88;4.70;;;15.40;99.90;;;;;;5133463;27;20031;-80
2022/07/12 01:00:39;;;;;;;6.78;4.97;;;15.40;99.90;;;;;;5132862;27;20145;-80
2022/07/12 01:03:05;;;;;;;6.32;5.18;;;15.40;99.90;;;;;;5133807;27;20046;-80
2022/07/12 01:05:31;;;;;;;7.63;5.55;;;15.30;99.90;;;;;;5134220;27;20031;-80
2022/07/12 01:07:57;;;;;;;5.32;4.72;;;15.40;99.90;;;;;;5134934;27;20114;-81
2022/07/12 01:10:23;;;;;;;6.07;5.30;;;15.40;99.90;;;;;;5132620;27;20465;-81
2022/07/12 01:12:50;;;;;;;5.78;5.20;;;15.40;99.90;;;;;;5135470;27;20472;-81
2022/07/12 01:15:16;;;;;;;8.80;6.18;;;15.40;99.90;;;;;;5134047;27;20047;-80
2022/07/12 01:17:45;;;;;;;6.50;5.85;;;15.30;99.90;;;;;;5112598;28;20039;-80
2022/07/12 01:20:13;;;;;;;6.93;5.28;;;15.30;99.90;;;;;;5115386;28;20090;-80
2022/07/12 01:22:41;;;;;;;7.18;4.97;;;15.30;99.90;;;;;;5114306;28;20478;-80
2022/07/12 01:25:07;;;;;;;8.98;5.78;;;15.30;99.90;;;;;;5113726;28;20079;-81
2022/07/12 01:27:33;;;;;;;5.75;5.05;;;15.30;99.90;;;;;;5133826;27;20051;-81
2022/07/12 01:30:03;;;;;;;6.70;5.43;;;15.30;99.90;;;;;;5137659;27;20039;-80
2022/07/12 01:32:30;;;;;;;6.68;5.45;;;15.30;99.90;;;;;;5114936;28;20054;-80
2022/07/12 01:35:02;;;;;;;7.85;6.28;;;15.30;99.90;;;;;;5114389;28;20084;-80
2022/07/12 01:37:35;;;;;;;6.57;5.75;;;15.30;99.90;;;;;;5115530;28;20078;-80
2022/07/12 01:40:05;;;;;;;6.17;5.57;;;15.30;99.90;;;;;;5112837;28;20089;-80
2022/07/12 01:42:31;;;;;;;7.03;6.07;;;15.30;99.90;;;;;;5132401;28;20846;-80
2022/07/12 01:44:57;;;;;;;6.55;5.95;;;15.30;99.90;;;;;;5134766;28;20078;-80
2022/07/12 01:47:27;;;;;;;6.93;6.07;;;15.30;99.90;;;;;;5132574;28;20091;-80
2022/07/12 01:49:53;;;;;;;8.80;5.97;;;15.30;99.90;;;;;;5132809;28;20039;-80
2022/07/12 01:52:19;;;;;;;7.00;6.00;;;15.30;99.90;;;;;;5133047;28;20546;-80
2022/07/12 01:54:46;;;;;;;8.13;6.35;;;15.30;99.90;;;;;;5133142;28;20595;-80
2022/07/12 01:57:12;;;;;;;9.15;6.47;;;15.30;99.90;;;;;;5134423;28;20077;-80
2022/07/12 01:59:38;;;;;;;8.27;6.82;;;15.30;99.90;;;;;;5132807;28;20043;-80
2022/07/12 02:02:04;;;;;;;9.25;6.88;;;15.30;99.90;;;;;;5133175;28;20039;-80
2022/07/12 02:04:29;;;;;;;7.05;6.30;;;15.30;99.90;;;;;;5133453;28;20509;-80
2022/07/12 02:06:56;;;;;;;7.50;6.00;;;15.30;99.90;;;;;;5131755;27;20541;-80
2022/07/12 02:09:22;;;;;;;9.38;6.40;;;15.30;99.90;;;;;;5136938;27;20047;-80
2022/07/12 02:11:48;;;;;;;8.85;6.47;;;15.30;99.90;;;;;;5136021;27;20129;-80
2022/07/12 02:14:14;;;;;;;7.03;6.32;;;15.30;99.90;;;;;;5136987;27;20058;-80
2022/07/12 02:16:41;;;;;;;8.25;5.90;;;15.30;99.90;;;;;;5137153;27;20101;-79
2022/07/12 02:19:07;;;;;;;7.18;6.47;;;15.30;99.90;;;;;;5138183;27;20470;-79
2022/07/12 02:21:33;;;;;;;6.82;6.13;;;15.30;99.90;;;;;;5136434;27;20035;-80
2022/07/12 02:24:00;;;;;;;6.10;5.50;;;15.30;99.90;;;;;;5119796;27;20351;-80
2022/07/12 02:26:26;;;;;;;7.13;6.32;;;15.30;99.90;;;;;;5135900;27;20051;-80
2022/07/12 02:28:52;;;;;;;10.40;7.45;;;15.30;99.90;;;;;;5137221;27;20050;-79
2022/07/12 02:31:18;;;;;;;6.90;6.22;;;15.20;99.90;;;;;;5138066;27;20382;-80
2022/07/12 02:33:44;;;;;;;6.72;5.93;;;15.30;99.90;;;;;;5134890;27;20043;-80
2022/07/12 02:36:09;;;;;;;8.27;6.82;;;15.20;99.90;;;;;;5134950;27;20050;-80
2022/07/12 02:38:35;;;;;;;7.53;5.50;;;15.20;99.90;;;;;;5137903;27;20035;-80
2022/07/12 02:41:01;;;;;;;6.07;5.47;;;15.20;99.90;;;;;;5135425;27;20050;-80
2022/07/12 02:43:29;;;;;;;5.13;4.68;;;15.20;99.90;;;;;;5137000;27;20043;-80
2022/07/12 02:46:06;;;;;;;6.28;5.65;;;15.20;99.90;;;;;;5136619;27;20043;-80
2022/07/12 02:48:32;;;;;;;5.97;5.40;;;15.20;99.90;;;;;;5136391;27;20047;-80
2022/07/12 02:51:03;;;;;;;6.25;4.80;;;15.20;99.90;;;;;;5135491;27;20039;-80
2022/07/12 02:53:29;;;;;;;4.45;4.03;;;15.20;99.90;;;;;;5137668;27;20123;-80
2022/07/12 02:55:55;;;;;;;16.63;4.90;;;15.10;99.90;;;;;;5135597;27;20513;-80
2022/07/12 02:58:21;;;;;;;6.65;4.03;;;15.10;99.90;;;;;;5137374;27;20085;-80
2022/07/12 03:00:47;;;;;;;22.08;4.97;;;15.10;99.90;;;;;;5136560;27;20122;-80
2022/07/12 03:03:13;;;;;;;5.68;4.72;;;15.10;99.90;;;;;;5136474;27;20520;-80
2022/07/12 03:05:40;;;;;;;8.77;4.50;;;15.10;99.90;;;;;;5136393;27;20048;-80
2022/07/12 03:08:07;;;;;;;8.30;4.60;;;15.00;99.90;;;;;;5136570;27;20144;-80
2022/07/12 03:10:34;;;;;;;7.15;4.20;;;15.10;99.90;;;;;;5126419;27;20050;-80
2022/07/12 03:13:00;;;;;;;6.35;4.15;;;15.00;99.90;;;;;;5124007;27;20067;-80
2022/07/12 03:15:26;;;;;;;14.55;4.40;;;15.00;99.90;;;;;;5152012;27;20047;-79
2022/07/12 03:17:52;;;;;;;14.85;3.97;;;14.90;99.90;;;;;;5138368;27;20439;-79
2022/07/12 03:20:17;;;;;;;7.45;3.35;;;14.90;99.90;;;;;;5156107;27;20046;-79
2022/07/12 03:22:46;;;;;;;4.45;3.63;;;14.90;99.90;;;;;;5157700;27;20046;-80
2022/07/12 03:25:12;;;;;;;18.50;4.35;;;14.90;99.90;;;;;;5137565;27;20046;-79
2022/07/12 03:27:39;;;;;;;7.68;3.78;;;14.80;99.90;;;;;;5139087;27;20043;-79
2022/07/12 03:30:06;;;;;;;7.38;3.50;;;14.80;99.90;;;;;;5156193;27;20047;-79
2022/07/12 03:32:32;;;;;;;3.97;3.50;;;14.70;99.90;;;;;;5138335;27;20054;-79
2022/07/12 03:34:58;;;;;;;3.53;3.22;;;14.70;99.90;;;;;;5138048;27;20050;-79
2022/07/12 03:37:24;;;;;;;5.28;3.13;;;14.70;99.90;;;;;;5156377;27;20039;-79
2022/07/12 03:39:49;;;;;;;3.95;3.63;;;14.70;99.90;;;;;;5156833;27;20038;-79
2022/07/12 03:42:15;;;;;;;7.85;3.92;;;14.70;99.90;;;;;;5137877;27;20092;-78
2022/07/12 03:44:41;;;;;;;4.15;3.67;;;14.70;99.90;;;;;;5118528;27;20039;-79
2022/07/12 03:47:13;;;;;;;5.70;3.38;;;14.70;99.90;;;;;;5135874;27;20482;-79
2022/07/12 03:49:38;;;;;;;6.18;3.10;;;14.70;99.90;;;;;;5156500;27;20085;-79
2022/07/12 03:52:04;;;;;;;6.10;3.47;;;14.60;99.90;;;;;;5138243;27;20164;-79
2022/07/12 03:54:30;;;;;;;10.23;3.40;;;14.60;99.90;;;;;;5156307;27;20477;-79
2022/07/12 03:57:14;;;;;;;12.52;4.05;;;14.60;99.90;;;;;;5138587;27;20482;-79
2022/07/12 03:59:44;;;;;;;12.90;4.57;;;14.60;99.90;;;;;;5155306;27;20039;-79
2022/07/12 04:02:10;;;;;;;4.63;4.18;;;14.60;99.90;;;;;;5138569;27;20117;-79
2022/07/12 04:04:36;;;;;;;10.35;4.22;;;14.60;99.90;;;;;;5120352;27;20051;-79
2022/07/12 04:07:02;;;;;;;3.92;3.55;;;14.60;99.90;;;;;;5135509;27;20042;-79
2022/07/12 04:09:28;;;;;;;12.77;4.07;;;14.60;99.90;;;;;;5137817;27;20532;-79
2022/07/12 04:11:54;;;;;;;6.57;3.70;;;14.60;99.90;;;;;;5156919;27;20047;-79
2022/07/12 04:14:19;;;;;;;12.65;3.30;;;14.50;99.90;;;;;;5154613;27;20046;-79
2022/07/12 04:16:45;;;;;;;10.07;3.38;;;14.50;99.90;;;;;;5137984;27;20050;-79
2022/07/12 04:19:11;;;;;;;6.07;2.83;;;14.50;99.90;;;;;;5137365;27;20041;-79
2022/07/12 04:21:38;;;;;;;13.25;3.10;;;14.50;99.90;;;;;;5154624;27;20394;-79
2022/07/12 04:24:04;;;;;;;24.70;3.35;;;14.50;99.90;;;;;;5155793;27;20091;-79
2022/07/12 04:26:30;;;;;;;14.73;3.60;;;14.40;99.90;;;;;;5138133;27;20049;-79
2022/07/12 04:28:57;;;;;;;6.72;2.80;;;14.40;99.90;;;;;;5135889;27;20495;-79
2022/07/12 04:31:23;;;;;;;21.02;3.13;;;14.40;99.90;;;;;;5136906;27;20094;-79
2022/07/12 04:33:49;;;;;;;13.88;2.70;;;14.40;99.90;;;;;;5131497;27;20070;-79
2022/07/12 04:36:15;;;;;;;6.28;2.47;;;14.40;99.90;;;;;;5116470;27;20082;-79
2022/07/12 04:38:40;;;;;;;4.20;2.17;;;14.40;99.90;;;;;;5141071;27;20597;-79
2022/07/12 04:41:06;;;;;;;5.05;2.50;;;14.40;99.90;;;;;;5137966;27;20046;-79
2022/07/12 04:43:32;;;;;;;9.45;2.53;;;14.40;99.90;;;;;;5136063;27;20370;-79
2022/07/12 04:46:08;;;;;;;7.53;2.58;;;14.40;99.90;;;;;;5155123;27;20066;-79
2022/07/12 04:48:37;;;;;;;2.67;2.47;;;14.50;99.90;;;;;;5132301;27;20035;-79
2022/07/12 04:51:03;;;;;;;3.67;3.10;;;14.60;99.90;;;;;;5117157;27;20080;-79
2022/07/12 04:53:29;;;;;;;3.42;2.58;;;14.60;99.90;;;;;;5137855;27;20130;-79
2022/07/12 04:55:56;;;;;;;3.53;3.03;;;14.70;99.90;;;;;;5155406;27;20056;-79
2022/07/12 04:58:23;;;;;;;2.70;2.50;;;14.80;99.90;;;;;;5136691;27;20075;-79
2022/07/12 05:00:49;;;;;;;2.30;2.10;;;14.90;99.90;;;;;;5152513;27;20100;-79
2022/07/12 05:03:15;;;;;;;3.45;2.70;;;15.00;99.90;;;;;;5134605;27;20043;-79
2022/07/12 05:05:41;;;;;;;3.10;2.90;;;15.20;99.90;;;;;;5130575;27;20045;-79
2022/07/12 05:08:07;;;;;;;5.45;3.00;;;15.30;99.90;;;;;;5143975;27;20050;-79
2022/07/12 05:10:32;;;;;;;3.70;3.40;;;15.50;99.90;;;;;;5155190;27;20043;-79
2022/07/12 05:12:58;;;;;;;3.88;3.40;;;15.60;99.90;;;;;;5120530;27;20063;-81
2022/07/12 05:15:24;;;;;;;3.65;3.33;;;15.70;99.90;;;;;;5116949;28;20126;-81
2022/07/12 05:17:50;;;;;;;3.03;2.80;;;15.80;99.90;;;;;;5115740;28;20073;-81
2022/07/12 05:20:16;;;;;;;3.15;2.85;;;15.90;99.90;;;;;;5115484;28;20046;-81
2022/07/12 05:22:41;;;;;;;2.95;2.75;;;16.10;99.90;;;;;;5117965;27;20074;-81
2022/07/12 05:25:10;;;;;;;3.22;2.92;;;16.20;99.90;;;;;;5134748;27;20184;-80
2022/07/12 05:27:36;;;;;;;2.55;2.35;;;16.30;99.90;;;;;;5134090;27;20478;-80
2022/07/12 05:30:04;;;;;;;3.20;2.42;;;16.40;99.90;;;;;;5129015;27;20550;-81
2022/07/12 05:32:29;;;;;;;3.30;2.58;;;16.40;99.90;;;;;;5112231;28;20059;-80
2022/07/12 05:34:55;;;;;;;3.17;2.80;;;16.30;99.90;;;;;;5119790;28;20039;-80
2022/07/12 05:37:24;;;;;;;2.80;2.30;;;16.40;99.90;;;;;;5134832;27;20035;-80
2022/07/12 05:39:50;;;;;;;2.50;2.30;;;16.40;99.90;;;;;;5132622;28;20486;-80
2022/07/12 05:42:16;;;;;;;2.90;2.70;;;16.40;99.90;;;;;;5138323;27;20041;-81
2022/07/12 05:44:42;;;;;;;3.53;2.63;;;16.40;99.90;;;;;;5136353;27;20043;-80
2022/07/12 05:47:07;;;;;;;2.72;2.30;;;16.40;99.90;;;;;;5140596;27;20494;-81
2022/07/12 05:49:33;;;;;;;3.28;2.35;;;16.40;99.90;;;;;;5137758;27;20075;-81
2022/07/12 05:54:43;;;;;;;3.27;2.30;;;16.40;99.90;;;;;;5136619;27;20157;-81
2022/07/12 05:57:09;;;;;;;2.53;2.33;;;16.40;99.90;;;;;;5139071;27;20791;-81
2022/07/12 05:59:35;;;;;;;2.78;2.53;;;16.40;99.90;;;;;;5135686;27;20054;-81
2022/07/12 06:02:01;;;;;;;3.90;2.13;;;16.40;99.90;;;;;;5138510;27;20118;-81
2022/07/12 06:04:27;;;;;;;2.40;2.20;;;16.40;99.90;;;;;;5138690;27;20098;-81
2022/07/12 06:06:53;;;;;;;2.25;2.05;;;16.40;99.90;;;;;;5135986;27;20075;-80
2022/07/12 06:09:18;;;;;;;2.20;2.00;;;16.40;99.90;;;;;;5137168;27;20096;-81
2022/07/12 06:11:44;;;;;;;2.40;2.15;;;16.40;99.90;;;;;;5138685;27;20107;-81
2022/07/12 06:14:10;;;;;;;2.83;2.30;;;16.50;99.90;;;;;;5154084;27;20105;-81
2022/07/12 06:16:35;;;;;;;3.28;2.33;;;16.50;99.90;;;;;;5135514;27;20570;-81
2022/07/12 06:19:01;;;;;;;4.78;2.50;;;16.50;99.90;;;;;;5138022;27;20482;-81
2022/07/12 06:21:27;;;;;;;3.22;2.30;;;16.60;99.90;;;;;;5137501;27;20050;-81
2022/07/12 06:23:53;;;;;;;3.90;2.45;;;16.60;99.90;;;;;;5138664;27;20039;-81
2022/07/12 06:26:19;;;;;;;3.83;2.67;;;16.60;99.90;;;;;;5154861;27;20034;-81
2022/07/12 06:28:45;;;;;;;3.28;2.45;;;16.70;99.90;;;;;;5138971;27;20075;-82
2022/07/12 06:31:10;;;;;;;9.43;2.85;;;16.80;99.90;;;;;;5145222;27;20110;-81
2022/07/12 06:33:37;;;;;;;2.45;2.25;;;16.90;99.90;;;;;;5140342;27;20054;-82
2022/07/12 06:36:06;;;;;;;2.40;2.20;;;17.00;99.90;;;;;;5156973;27;20039;-82
2022/07/12 06:38:32;;;;;;;2.67;2.42;;;17.10;99.90;;;;;;5131630;27;20055;-82
2022/07/12 06:40:57;;;;;;;3.00;2.22;;;17.10;99.90;;;;;;5138309;27;20050;-83
2022/07/12 06:43:23;;;;;;;3.33;2.92;;;17.20;99.90;;;;;;5158453;27;20119;-82
2022/07/12 06:45:49;;;;;;;2.80;2.55;;;17.30;99.90;;;;;;5156278;27;20043;-83
2022/07/12 06:48:15;;;;;;;2.42;2.03;;;17.40;99.90;;;;;;5121272;27;20042;-82
2022/07/12 06:50:41;;;;;;;3.78;2.20;;;17.50;99.90;;;;;;5137426;27;20114;-83
2022/07/12 06:53:11;;;;;;;2.30;2.10;;;17.60;99.90;;;;;;5151909;27;20047;-83
2022/07/12 06:55:37;;;;;;;4.18;2.13;;;17.80;99.90;;;;;;5138028;27;20523;-83
2022/07/12 06:58:03;;;;;;;5.03;2.33;;;17.90;99.90;;;;;;5138611;27;20046;-83
2022/07/12 07:00:29;;;;;;;2.63;2.42;;;18.10;99.90;;;;;;5157171;27;20031;-83
2022/07/12 07:02:54;;;;;;;2.70;1.98;;;18.20;99.90;;;;;;5138198;27;20416;-82
2022/07/12 07:05:20;;;;;;;5.10;2.28;;;18.30;99.90;;;;;;5138434;27;20051;-83
2022/07/12 07:07:46;;;;;;;2.90;2.33;;;18.30;99.90;;;;;;5138286;27;20046;-83
2022/07/12 07:10:12;;;;;;;4.75;2.40;;;18.40;99.90;;;;;;5155962;27;20095;-83
2022/07/12 07:12:38;;;;;;;2.58;2.33;;;18.40;99.90;;;;;;5157446;27;20054;-83
2022/07/12 07:15:04;;;;;;;2.97;2.08;;;18.50;99.90;;;;;;5157523;27;20046;-83
2022/07/12 07:17:30;;;;;;;2.70;2.50;;;18.60;99.90;;;;;;5129280;27;20043;-83
2022/07/12 07:19:56;;;;;;;3.20;2.90;;;18.60;99.90;;;;;;5118674;27;20509;-83
2022/07/12 07:22:22;;;;;;;3.05;2.45;;;18.70;99.90;;;;;;5153256;27;20564;-82
2022/07/12 07:24:48;;;;;;;2.90;2.30;;;18.90;99.90;;;;;;5117640;27;20111;-83
2022/07/12 07:27:14;;;;;;;3.42;1.77;;;19.00;99.90;;;;;;5152289;27;20042;-83
2022/07/12 07:32:24;;;;;;;2.78;2.35;;;19.40;99.90;;;;;;5132420;27;20089;-83
2022/07/12 07:34:53;;;;;;;2.15;2.05;;;19.60;99.90;;;;;;5126070;27;20050;-83
2022/07/12 07:37:19;;;;;;;3.15;2.17;;;19.70;99.90;;;;;;5155592;27;20428;-83
2022/07/12 07:39:44;;;;;;;2.00;1.70;;;19.80;99.90;;;;;;5155909;27;20402;-83
2022/07/12 07:42:10;;;;;;;2.35;1.80;;;19.90;99.90;;;;;;5137706;27;20041;-83
2022/07/12 07:44:36;;;;;;;2.50;2.30;;;19.90;99.90;;;;;;5154719;27;20047;-83
2022/07/12 07:47:02;;;;;;;2.67;2.47;;;20.00;99.90;;;;;;5156398;27;20051;-83
2022/07/12 07:49:28;;;;;;;2.55;2.35;;;20.00;99.90;;;;;;5147517;27;20107;-84
2022/07/12 07:51:54;;;;;;;2.35;1.92;;;20.10;99.90;;;;;;5135591;27;20050;-83
2022/07/12 07:54:20;;;;;;;4.10;2.15;;;20.10;99.90;;;;;;5133379;27;20393;-83
2022/07/12 07:56:45;;;;;;;2.15;1.65;;;20.10;99.90;;;;;;5136103;27;20053;-83
2022/07/12 07:59:11;;;;;;;2.75;1.90;;;20.20;99.90;;;;;;5155881;27;20039;-84
2022/07/12 08:01:43;;;;;;;3.47;1.65;;;20.20;99.90;;;;;;5155821;27;20054;-82
2022/07/12 08:04:10;;;;;;;6.90;1.50;;;20.30;99.90;;;;;;5131359;27;20035;-83
2022/07/12 08:06:36;;;;;;;1.92;1.67;;;20.40;99.90;;;;;;5154785;27;20053;-83
2022/07/12 08:09:02;;;;;;;5.30;2.35;;;20.40;99.90;;;;;;5138059;27;20074;-83
2022/07/12 08:11:28;;;;;;;2.35;2.00;;;20.50;99.90;;;;;;5137322;27;20129;-83
2022/07/12 08:13:54;;;;;;;3.17;2.08;;;20.50;99.90;;;;;;5155210;27;20164;-83
2022/07/12 08:16:22;;;;;;;2.67;1.98;;;20.50;99.90;;;;;;5156259;27;20125;-83
2022/07/12 08:18:48;;;;;;;4.28;2.20;;;20.60;99.90;;;;;;5155491;27;20038;-83
2022/07/12 08:21:14;;;;;;;5.65;1.90;;;20.60;99.90;;;;;;5152244;27;20117;-83
2022/07/12 08:23:43;;;;;;;2.10;1.95;;;20.60;99.90;;;;;;5135548;27;20202;-84
2022/07/12 08:26:09;;;;;;;2.67;2.10;;;20.60;99.90;;;;;;5126166;27;20080;-83
2022/07/12 08:28:34;;;;;;;3.22;2.22;;;20.60;99.90;;;;;;5136229;27;20122;-83
2022/07/12 08:31:00;;;;;;;2.85;2.50;;;20.60;99.90;;;;;;5135401;27;20511;-83
2022/07/12 08:33:26;;;;;;;2.30;2.10;;;20.60;99.90;;;;;;5135700;27;20050;-83
2022/07/12 08:35:52;;;;;;;4.13;2.10;;;20.60;99.90;;;;;;5154707;27;20041;-84
2022/07/12 08:38:17;;;;;;;1.92;1.65;;;20.60;99.90;;;;;;5132763;27;20523;-84
2022/07/12 08:40:43;;;;;;;2.00;1.90;;;20.70;99.90;;;;;;5124906;27;20050;-83
2022/07/12 08:43:09;;;;;;;1.77;1.67;;;20.80;99.90;;;;;;5153539;27;20042;-83
2022/07/12 08:45:35;;;;;;;3.67;2.55;;;20.80;99.90;;;;;;5155309;27;20125;-84
2022/07/12 08:48:01;;;;;;;3.05;2.10;;;20.90;99.90;;;;;;5154204;27;20152;-83
2022/07/12 08:50:27;;;;;;;2.20;1.42;;;20.90;99.90;;;;;;5155184;27;20103;-83
2022/07/12 08:52:55;;;;;;;4.20;2.28;;;21.00;99.90;;;;;;5156020;27;20038;-84
2022/07/12 08:55:37;;;;;;;2.10;1.92;;;21.10;99.90;;;;;;5140434;27;20041;-83
2022/07/12 08:58:07;;;;;;;5.80;2.10;;;21.10;99.90;;;;;;5137361;27;20042;-83
2022/07/12 09:00:39;;;;;;;2.15;1.95;;;21.10;99.90;;;;;;5136546;27;20430;-83
2022/07/12 09:03:06;;;;;;;3.35;2.13;;;21.20;99.90;;;;;;5153988;27;20027;-84
2022/07/12 09:05:34;;;;;;;2.80;2.05;;;21.30;99.90;;;;;;5155570;27;20042;-83
2022/07/12 09:08:02;;;;;;;4.05;2.53;;;21.30;99.90;;;;;;5136104;27;20042;-83
2022/07/12 09:10:28;;;;;;;3.40;2.40;;;21.40;99.90;;;;;;5154507;27;20046;-83
2022/07/12 09:12:54;;;;;;;2.92;2.00;;;21.40;99.90;;;;;;5154327;27;20088;-83
2022/07/12 09:15:22;;;;;;;1.80;1.65;;;21.40;99.90;;;;;;5155361;27;20420;-83
2022/07/12 09:18:02;;;;;;;2.33;2.08;;;21.40;99.90;;;;;;5153140;27;20148;-84
2022/07/12 09:20:38;;;;;;;2.97;1.88;;;21.50;99.90;;;;;;5136858;27;20146;-83
2022/07/12 09:23:06;;;;;;;2.50;2.10;;;21.60;99.90;;;;;;5138191;27;20043;-83
2022/07/12 09:25:32;;;;;;;2.78;2.50;;;21.70;99.90;;;;;;5130471;27;20069;-84
2022/07/12 09:28:00;;;;;;;2.70;2.50;;;21.80;99.90;;;;;;5153878;27;20038;-83
2022/07/12 09:30:27;;;;;;;5.03;2.40;;;21.80;99.90;;;;;;5135800;27;20086;-84
2022/07/12 09:36:10;;;;;;;5.82;2.97;;;21.90;99.90;;;;;;5154249;27;20115;-84
2022/07/12 09:38:39;;;;;;;6.25;2.40;;;21.90;99.90;;;;;;5126192;27;20043;-83
2022/07/12 09:41:08;;;;;;;2.83;2.08;;;22.00;99.90;;;;;;5134962;27;20047;-84
2022/07/12 09:43:35;;;;;;;2.60;2.40;;;22.00;99.90;;;;;;5154609;27;20047;-84
2022/07/12 09:46:01;;;;;;;2.60;2.00;;;22.00;99.90;;;;;;5134880;27;20042;-82
2022/07/12 09:48:30;;;;;;;3.60;2.40;;;22.10;99.90;;;;;;5136573;27;20553;-84
2022/07/12 09:50:57;;;;;;;3.17;2.50;;;22.20;99.90;;;;;;5153283;27;20342;-83
2022/07/12 09:53:38;;;;;;;3.70;1.90;;;22.20;99.90;;;;;;5151336;27;20049;-84
2022/07/12 09:56:10;;;;;;;5.57;1.80;;;22.30;99.90;;;;;;5134150;28;20082;-83
2022/07/12 09:58:56;;;;;;;1.83;1.65;;;22.30;99.90;;;;;;5142635;27;20042;-84
2022/07/12 10:01:23;;;;;;;2.22;1.65;;;22.40;99.90;;;;;;5154840;27;20517;-84
2022/07/12 10:03:50;;;;;;;1.85;1.67;;;22.50;99.90;;;;;;5151426;27;20039;-83
2022/07/12 10:06:28;;;;;;;5.65;2.20;;;22.60;99.90;;;;;;5144264;27;20121;-84
2022/07/12 10:08:55;;;;;;;4.38;2.85;;;22.70;99.90;;;;;;5151494;27;20103;-82
2022/07/12 10:11:23;;;;;;;5.13;2.60;;;22.70;99.90;;;;;;5134075;28;20079;-82
2022/07/12 10:13:50;;;;;;;3.58;2.72;;;22.90;99.90;;;;;;5136332;27;20111;-82
2022/07/12 10:16:24;;;;;;;3.63;2.05;;;22.90;99.90;;;;;;5135269;27;20550;-81
2022/07/12 10:19:22;;;;;;;4.13;1.77;;;23.00;99.90;;;;;;5134525;27;20045;-83
2022/07/12 10:21:49;;;;;;;3.42;2.05;;;23.00;99.90;;;;;;5120113;28;20051;-83
2022/07/12 10:24:51;;;;;;;4.63;2.28;;;23.10;99.90;;;;;;5121147;27;20053;-82
2022/07/12 10:27:17;;;;;;;2.97;2.70;;;23.20;99.90;;;;;;5142102;27;20122;-82
2022/07/12 10:29:44;;;;;;;3.25;2.67;;;23.30;99.90;;;;;;5153426;27;20126;-83
2022/07/12 10:32:32;;;;;;;4.32;2.72;;;23.30;99.90;;;;;;5137048;27;20077;-81
2022/07/12 10:35:05;;;;;;;3.40;2.83;;;23.40;99.90;;;;;;5118679;27;20398;-82
2022/07/12 10:37:32;;;;;;;3.10;2.80;;;23.40;99.90;;;;;;5137650;27;20125;-82
2022/07/12 10:40:13;;;;;;;2.95;2.67;;;23.40;99.90;;;;;;5145288;27;20119;-81
2022/07/12 10:42:40;;;;;;;9.10;3.30;;;23.40;99.90;;;;;;5156768;27;20070;-82
2022/07/12 10:45:13;;;;;;;4.80;3.50;;;23.50;99.90;;;;;;5138343;27;20047;-82
2022/07/12 10:47:54;;;;;;;4.13;2.78;;;23.50;99.90;;;;;;5156016;27;20096;-82
2022/07/12 10:53:30;;;;;;;2.70;2.10;;;23.70;99.90;;;;;;5146619;27;20047;-83
2022/07/12 10:56:15;;;;;;;2.53;2.30;;;23.80;99.90;;;;;;5146957;27;20042;-82
2022/07/12 10:58:43;;;;;;;3.35;2.55;;;23.90;99.90;;;;;;5154809;27;20074;-82
2022/07/12 11:01:29;;;;;;;4.30;3.03;;;24.00;99.90;;;;;;5134214;27;20050;-82
2022/07/12 11:03:56;;;;;;;2.78;1.98;;;24.10;99.90;;;;;;5155670;27;20051;-82
2022/07/12 11:06:23;;;;;;;7.78;2.25;;;24.10;99.90;;;;;;5154991;27;20095;-83
2022/07/12 11:09:00;;;;;;;2.40;1.58;;;24.20;99.90;;;;;;5156853;27;20039;-82
2022/07/12 11:11:31;;;;;;;3.40;2.90;;;24.30;99.90;;;;;;5156698;27;20397;-82
2022/07/12 11:14:01;;;;;;;3.97;2.75;;;24.30;99.90;;;;;;5157462;27;20482;-82
2022/07/12 11:16:28;;;;;;;4.15;2.42;;;24.20;99.90;;;;;;5155832;27;20035;-82
2022/07/12 11:18:55;;;;;;;4.88;2.20;;;24.10;99.90;;;;;;5157940;27;20043;-82
2022/07/12 11:21:21;;;;;;;2.90;2.30;;;24.10;99.90;;;;;;5156561;27;20076;-83
2022/07/12 11:23:48;;;;;;;3.30;2.20;;;24.10;99.90;;;;;;5156589;27;20098;-83
2022/07/12 11:26:14;;;;;;;7.05;4.13;;;24.10;99.90;;;;;;5155996;27;20081;-82
2022/07/12 11:28:42;;;;;;;3.28;2.80;;;24.10;99.90;;;;;;5143177;27;20108;-82
2022/07/12 11:31:11;;;;;;;4.72;2.90;;;24.10;99.90;;;;;;5155653;27;20046;-82
2022/07/12 11:33:42;;;;;;;6.03;2.58;;;24.20;99.90;;;;;;5157233;27;20042;-83
2022/07/12 11:36:10;;;;;;;3.08;2.30;;;24.20;99.90;;;;;;5155414;27;20043;-83
2022/07/12 11:38:38;;;;;;;5.28;2.85;;;24.30;99.90;;;;;;5157156;27;20053;-83
2022/07/12 11:41:06;;;;;;;5.57;2.38;;;24.40;99.90;;;;;;5155686;27;20089;-83
2022/07/12 11:43:33;;;;;;;5.45;2.55;;;24.40;99.90;;;;;;5137492;27;20078;-82
2022/07/12 11:46:00;;;;;;;5.60;2.00;;;24.50;99.90;;;;;;5155888;27;20091;-82
2022/07/12 11:48:26;;;;;;;5.43;2.15;;;24.50;99.90;;;;;;5157174;27;20068;-82
2022/07/12 11:50:54;;;;;;;5.95;1.80;;;24.50;99.90;;;;;;5151276;27;20479;-82
2022/07/12 11:53:26;;;;;;;4.13;1.80;;;24.60;99.90;;;;;;5135965;27;20081;-82
2022/07/12 11:55:55;;;;;;;2.58;1.45;;;24.60;99.90;;;;;;5122964;27;20057;-83
2022/07/12 11:58:22;;;;;;;3.95;1.60;;;24.70;99.90;;;;;;5156020;27;20047;-82
2022/07/12 12:00:49;;;;;;;1.80;0.80;;;24.70;99.90;;;;;;5155508;27;20129;-83
2022/07/12 12:03:16;;;;;;;3.17;1.20;;;24.60;99.90;;;;;;5156636;27;20046;-83
2022/07/12 12:05:43;;;;;;;2.15;0.90;;;24.60;99.90;;;;;;5154962;27;20045;-82
2022/07/12 12:08:11;;;;;;;2.70;1.00;;;24.60;99.90;;;;;;5156389;27;20049;-82
2022/07/12 12:10:37;;;;;;;2.10;0.70;;;24.60;99.90;;;;;;5155726;27;20053;-82
2022/07/12 12:13:03;;;;;;;2.03;0.90;;;24.60;99.90;;;;;;5155513;27;20484;-82
2022/07/12 12:15:33;;;;;;;4.32;0.90;;;24.60;99.90;;;;;;5149735;27;20070;-83
2022/07/12 12:18:06;;;;;;;0.77;0.73;;;24.70;99.90;;;;;;5148939;27;20477;-82
2022/07/12 12:20:33;;;;;;;1.50;0.70;;;24.70;99.90;;;;;;5154396;27;20389;-83
2022/07/12 12:23:14;;;;;;;1.17;0.85;;;24.80;99.90;;;;;;5156549;27;20038;-82
2022/07/12 12:25:39;;;;;;;3.45;1.40;;;24.80;99.90;;;;;;5135954;27;20158;-82
2022/07/12 12:28:06;;;;;;;5.25;0.98;;;24.90;99.90;;;;;;5155346;27;20109;-82
2022/07/12 12:30:34;;;;;;;2.42;0.90;;;24.90;99.90;;;;;;5153943;27;20071;-83
2022/07/12 12:33:02;;;;;;;1.48;1.30;;;24.90;99.90;;;;;;5145727;27;20035;-82
2022/07/12 12:35:36;;;;;;;2.42;1.30;;;24.90;99.90;;;;;;5138067;27;20562;-83
2022/07/12 12:38:13;;;;;;;1.80;1.52;;;25.00;99.90;;;;;;5137776;27;20058;-83
2022/07/12 12:40:39;;;;;;;2.75;0.90;;;25.00;99.90;;;;;;5154034;27;20050;-83
2022/07/12 12:43:13;;;;;;;1.83;1.10;;;25.10;99.90;;;;;;5155821;27;20043;-83
2022/07/12 12:45:53;;;;;;;2.13;1.00;;;25.20;99.90;;;;;;5151723;27;20070;-83
2022/07/12 12:48:21;;;;;;;2.42;0.95;;;25.30;99.90;;;;;;5127930;27;20397;-83
2022/07/12 12:51:01;;;;;;;1.95;1.02;;;25.40;99.90;;;;;;5135033;27;20050;-83
2022/07/12 12:53:27;;;;;;;4.65;1.80;;;25.50;99.90;;;;;;5150054;27;20045;-83
2022/07/12 12:55:55;;;;;;;1.10;1.00;;;25.20;99.90;;;;;;5155315;27;20038;-83
2022/07/12 12:58:24;;;;;;;2.78;1.00;;;25.50;99.90;;;;;;5154980;27;20039;-83
2022/07/12 13:00:54;;;;;;;2.45;1.30;;;25.60;99.90;;;;;;5154669;27;20361;-83